createdAt,value
2018-04-16T00:00:59.835Z,101327.53
2018-04-16T00:03:27.324Z,101322.23
2018-04-16T00:05:54.296Z,101315.17
2018-04-16T00:08:21.156Z,101314.36
2018-04-16T00:10:49.024Z,101316.72
2018-04-16T00:13:16.663Z,101310.46
2018-04-16T00:15:43.557Z,101301.06
2018-04-16T00:18:10.614Z,101306.77
2018-04-16T00:20:37.548Z,101311.93
2018-04-16T00:23:04.492Z,101299.09
2018-04-16T00:25:31.534Z,101303.85
2018-04-16T00:27:58.472Z,101296.82
2018-04-16T00:30:25.474Z,101288.69
2018-04-16T00:32:58.547Z,101294.30
2018-04-16T00:35:31.412Z,101301.23
2018-04-16T00:38:04.409Z,101301.20
2018-04-16T00:40:37.231Z,101301.20
2018-04-16T00:43:10.193Z,101298.63
2018-04-16T00:45:43.189Z,101305.25
2018-04-16T00:48:16.417Z,101306.02
2018-04-16T00:50:50.001Z,101302.11
2018-04-16T00:53:22.865Z,101306.55
2018-04-16T00:55:55.870Z,101294.78
2018-04-16T00:58:28.976Z,101299.97
2018-04-16T01:01:01.940Z,101301.67
2018-04-16T01:03:35.043Z,101301.42
2018-04-16T01:06:07.990Z,101301.48
2018-04-16T01:08:40.984Z,101298.70
2018-04-16T01:11:13.920Z,101306.67
2018-04-16T01:13:46.804Z,101299.22
2018-04-16T01:16:19.666Z,101295.81
2018-04-16T01:18:52.925Z,101296.32
2018-04-16T01:21:25.821Z,101295.71
2018-04-16T01:23:58.871Z,101296.67
2018-04-16T01:26:32.733Z,101295.30
2018-04-16T01:29:05.809Z,101295.55
2018-04-16T01:31:38.840Z,101290.20
2018-04-16T01:34:12.117Z,101293.73
2018-04-16T01:36:44.896Z,101295.70
2018-04-16T01:39:17.770Z,101293.19
2018-04-16T01:41:50.587Z,101293.80
2018-04-16T01:44:23.464Z,101301.12
2018-04-16T01:46:56.480Z,101307.94
2018-04-16T01:49:29.502Z,101314.75
2018-04-16T01:52:02.434Z,101313.23
2018-04-16T01:54:35.426Z,101311.97
2018-04-16T01:57:08.344Z,101310.80
2018-04-16T01:59:42.115Z,101313.27
2018-04-16T02:02:15.088Z,101315.67
2018-04-16T02:04:48.089Z,101307.44
2018-04-16T02:07:21.068Z,101309.47
2018-04-16T02:09:54.108Z,101304.77
2018-04-16T02:12:27.862Z,101300.44
2018-04-16T02:15:00.995Z,101294.06
2018-04-16T02:17:34.702Z,101293.05
2018-04-16T02:23:08.042Z,101293.16
2018-04-16T02:25:41.262Z,101300.72
2018-04-16T02:28:14.310Z,101300.27
2018-04-16T02:30:47.264Z,101298.78
2018-04-16T02:33:20.226Z,101304.52
2018-04-16T02:35:53.145Z,101297.25
2018-04-16T02:41:27.692Z,101304.06
2018-04-16T02:44:00.677Z,101300.25
2018-04-16T02:46:33.541Z,101301.09
2018-04-16T02:49:06.510Z,101294.62
2018-04-16T02:51:39.616Z,101302.28
2018-04-16T02:54:13.489Z,101306.89
2018-04-16T02:56:46.668Z,101304.51
2018-04-16T02:59:20.418Z,101299.34
2018-04-16T03:01:53.572Z,101300.77
2018-04-16T03:04:26.482Z,101304.51
2018-04-16T03:06:59.544Z,101308.05
2018-04-16T03:09:33.100Z,101297.42
2018-04-16T03:12:06.193Z,101313.16
2018-04-16T03:14:39.108Z,101314.16
2018-04-16T03:17:12.464Z,101320.32
2018-04-16T03:19:45.294Z,101318.90
2018-04-16T03:22:19.218Z,101310.88
2018-04-16T03:24:52.885Z,101299.11
2018-04-16T03:27:25.794Z,101292.98
2018-04-16T03:29:58.785Z,101296.33
2018-04-16T03:32:32.602Z,101284.91
2018-04-16T03:35:05.488Z,101291.51
2018-04-16T03:37:39.285Z,101297.42
2018-04-16T03:40:12.113Z,101301.16
2018-04-16T03:42:45.216Z,101293.95
2018-04-16T03:45:18.281Z,101292.89
2018-04-16T03:47:51.194Z,101300.49
2018-04-16T03:50:24.239Z,101309.62
2018-04-16T03:52:58.108Z,101314.67
2018-04-16T03:55:28.005Z,101313.26
2018-04-16T03:57:55.651Z,101314.87
2018-04-16T04:00:22.771Z,101318.37
2018-04-16T04:02:50.441Z,101317.74
2018-04-16T04:05:18.118Z,101322.69
2018-04-16T04:07:45.059Z,101320.56
2018-04-16T04:10:11.940Z,101326.35
2018-04-16T04:12:38.848Z,101325.64
2018-04-16T04:15:05.801Z,101328.77
2018-04-16T04:17:32.697Z,101330.84
2018-04-16T04:19:59.571Z,101337.80
2018-04-16T04:22:45.845Z,101332.55
2018-04-16T04:25:31.159Z,101337.44
2018-04-16T04:28:17.220Z,101326.20
2018-04-16T04:30:44.208Z,101329.02
2018-04-16T04:33:11.121Z,101336.41
2018-04-16T04:35:38.038Z,101332.23
2018-04-16T04:38:04.915Z,101335.42
2018-04-16T04:40:31.796Z,101335.77
2018-04-16T04:42:58.820Z,101341.21
2018-04-16T04:45:26.504Z,101343.41
2018-04-16T04:47:53.373Z,101337.50
2018-04-16T04:50:20.318Z,101338.09
2018-04-16T04:52:47.294Z,101347.66
2018-04-16T04:55:14.506Z,101346.88
2018-04-16T04:57:41.476Z,101345.08
2018-04-16T05:00:08.412Z,101349.70
2018-04-16T05:02:35.348Z,101354.77
2018-04-16T05:05:02.408Z,101355.91
2018-04-16T05:07:29.288Z,101359.63
2018-04-16T05:09:56.162Z,101359.52
2018-04-16T05:12:23.927Z,101361.63
2018-04-16T05:14:51.573Z,101368.85
2018-04-16T05:17:18.453Z,101363.84
2018-04-16T05:19:45.412Z,101370.65
2018-04-16T05:22:12.303Z,101371.86
2018-04-16T05:24:39.180Z,101372.60
2018-04-16T05:27:06.931Z,101378.05
2018-04-16T05:29:34.602Z,101379.13
2018-04-16T05:32:02.301Z,101376.46
2018-04-16T05:34:29.221Z,101377.98
2018-04-16T05:36:56.137Z,101373.79
2018-04-16T05:39:23.032Z,101376.17
2018-04-16T05:41:50.392Z,101384.05
2018-04-16T05:44:17.275Z,101377.46
2018-04-16T05:46:44.178Z,101385.89
2018-04-16T05:49:11.201Z,101383.94
2018-04-16T05:51:38.860Z,101392.21
2018-04-16T05:54:06.875Z,101395.30
2018-04-16T05:56:33.804Z,101401.75
2018-04-16T05:59:00.676Z,101404.71
2018-04-16T06:01:27.552Z,101408.28
2018-04-16T06:03:54.569Z,101412.94
2018-04-16T06:06:21.440Z,101413.00
2018-04-16T06:08:48.353Z,101412.71
2018-04-16T06:11:15.364Z,101418.95
2018-04-16T06:13:42.255Z,101427.62
2018-04-16T06:16:09.220Z,101420.44
2018-04-16T06:18:36.195Z,101423.06
2018-04-16T06:21:03.825Z,101426.70
2018-04-16T06:23:30.713Z,101435.01
2018-04-16T06:25:57.675Z,101435.25
2018-04-16T06:28:24.570Z,101438.24
2018-04-16T06:30:51.508Z,101441.23
2018-04-16T06:33:18.631Z,101439.86
2018-04-16T06:35:45.562Z,101443.70
2018-04-16T06:38:12.440Z,101438.38
2018-04-16T06:40:39.449Z,101434.67
2018-04-16T06:43:06.388Z,101437.65
2018-04-16T06:45:33.310Z,101433.11
2018-04-16T06:48:01.025Z,101433.78
2018-04-16T06:50:27.906Z,101433.17
2018-04-16T06:52:54.789Z,101427.84
2018-04-16T06:55:21.920Z,101436.14
2018-04-16T06:57:49.543Z,101436.65
2018-04-16T07:00:16.456Z,101439.59
2018-04-16T07:02:43.584Z,101447.80
2018-04-16T07:05:11.280Z,101440.88
2018-04-16T07:07:38.160Z,101436.20
2018-04-16T07:10:05.305Z,101432.03
2018-04-16T07:12:32.175Z,101428.80
2018-04-16T07:14:59.811Z,101435.00
2018-04-16T07:17:26.888Z,101439.80
2018-04-16T07:19:53.862Z,101443.86
2018-04-16T07:22:20.765Z,101447.72
2018-04-16T07:24:47.942Z,101445.12
2018-04-16T07:27:15.650Z,101455.73
2018-04-16T07:29:42.539Z,101451.91
2018-04-16T07:32:09.573Z,101448.72
2018-04-16T07:34:36.548Z,101442.84
2018-04-16T07:37:03.481Z,101452.22
2018-04-16T07:39:30.496Z,101457.85
2018-04-16T07:41:57.368Z,101463.53
2018-04-16T07:44:24.251Z,101468.13
2018-04-16T07:46:51.165Z,101471.64
2018-04-16T07:49:18.092Z,101480.48
2018-04-16T07:51:44.959Z,101486.61
2018-04-16T07:54:12.025Z,101485.59
2018-04-16T07:56:39.640Z,101485.17
2018-04-16T07:59:07.300Z,101489.60
2018-04-16T08:01:34.368Z,101489.00
2018-04-16T08:04:01.270Z,101488.23
2018-04-16T08:06:28.145Z,101491.81
2018-04-16T08:08:55.170Z,101492.35
2018-04-16T08:11:22.140Z,101495.44
2018-04-16T08:13:49.028Z,101494.22
2018-04-16T08:16:16.884Z,101493.91
2018-04-16T08:18:43.763Z,101497.04
2018-04-16T08:21:10.628Z,101499.27
2018-04-16T08:23:37.617Z,101498.25
2018-04-16T08:26:04.502Z,101496.16
2018-04-16T08:28:31.460Z,101504.01
2018-04-16T08:30:58.478Z,101502.95
2018-04-16T08:33:25.420Z,101494.11
2018-04-16T08:35:53.133Z,101502.34
2018-04-16T08:38:20.968Z,101502.31
2018-04-16T08:40:47.893Z,101498.61
2018-04-16T08:43:15.507Z,101505.38
2018-04-16T08:45:42.653Z,101514.16
2018-04-16T08:48:09.595Z,101510.02
2018-04-16T08:50:37.274Z,101517.33
2018-04-16T08:53:04.408Z,101513.97
2018-04-16T08:55:31.314Z,101510.48
2018-04-16T08:57:58.946Z,101509.08
2018-04-16T09:00:26.069Z,101507.70
2018-04-16T09:02:52.949Z,101505.08
2018-04-16T09:05:19.940Z,101514.09
2018-04-16T09:07:46.856Z,101519.84
2018-04-16T09:10:13.743Z,101513.91
2018-04-16T09:12:40.628Z,101510.38
2018-04-16T09:15:07.629Z,101516.84
2018-04-16T09:17:34.633Z,101512.48
2018-04-16T09:20:01.529Z,101512.91
2018-04-16T09:22:28.477Z,101514.43
2018-04-16T09:24:55.352Z,101508.27
2018-04-16T09:27:22.298Z,101509.92
2018-04-16T09:29:49.585Z,101512.86
2018-04-16T09:32:16.448Z,101515.47
2018-04-16T09:34:44.073Z,101521.97
2018-04-16T09:37:11.193Z,101523.38
2018-04-16T09:39:38.099Z,101525.36
2018-04-16T09:42:05.773Z,101523.95
2018-04-16T09:44:32.896Z,101522.77
2018-04-16T09:46:59.768Z,101524.17
2018-04-16T09:49:26.741Z,101515.06
2018-04-16T09:51:53.840Z,101520.62
2018-04-16T09:54:20.786Z,101516.05
2018-04-16T09:56:47.723Z,101522.52
2018-04-16T09:59:14.700Z,101527.73
2018-04-16T10:01:42.352Z,101524.59
2018-04-16T10:04:09.973Z,101527.92
2018-04-16T10:06:37.852Z,101528.52
2018-04-16T10:09:05.843Z,101529.67
2018-04-16T10:11:32.804Z,101538.58
2018-04-16T10:14:00.632Z,101527.34
2018-04-16T10:16:27.514Z,101523.59
2018-04-16T10:18:55.141Z,101532.87
2018-04-16T10:21:22.168Z,101534.06
2018-04-16T10:23:49.044Z,101531.25
2018-04-16T10:26:15.922Z,101530.86
2018-04-16T10:28:43.597Z,101535.22
2018-04-16T10:31:10.603Z,101537.59
2018-04-16T10:33:37.920Z,101534.66
2018-04-16T10:36:05.257Z,101536.59
2018-04-16T10:38:32.193Z,101534.15
2018-04-16T10:40:59.153Z,101530.39
2018-04-16T10:43:26.817Z,101524.05
2018-04-16T10:45:53.702Z,101525.03
2018-04-16T10:48:20.584Z,101522.32
2018-04-16T10:50:48.294Z,101525.87
2018-04-16T10:53:15.907Z,101532.23
2018-04-16T10:55:43.538Z,101533.27
2018-04-16T10:58:11.437Z,101533.45
2018-04-16T11:00:39.057Z,101535.63
2018-04-16T11:03:05.996Z,101529.03
2018-04-16T11:05:33.852Z,101524.56
2018-04-16T11:08:00.720Z,101525.50
2018-04-16T11:10:27.700Z,101522.25
2018-04-16T11:12:54.702Z,101520.58
2018-04-16T11:15:21.585Z,101528.02
2018-04-16T11:17:48.505Z,101536.98
2018-04-16T11:20:15.527Z,101537.39
2018-04-16T11:22:42.450Z,101529.30
2018-04-16T11:25:09.588Z,101534.81
2018-04-16T11:27:37.363Z,101536.70
2018-04-16T11:30:05.084Z,101539.23
2018-04-16T11:32:32.070Z,101537.33
2018-04-16T11:34:59.084Z,101541.96
2018-04-16T11:37:26.860Z,101534.25
2018-04-16T11:39:53.752Z,101541.31
2018-04-16T11:42:20.734Z,101538.44
2018-04-16T11:44:52.529Z,101547.17
2018-04-16T11:47:19.395Z,101538.59
2018-04-16T11:49:47.357Z,101544.56
2018-04-16T11:52:14.341Z,101551.38
2018-04-16T11:54:41.348Z,101550.91
2018-04-16T11:57:08.345Z,101549.80
2018-04-16T11:59:35.234Z,101552.34
2018-04-16T12:02:02.124Z,101548.72
2018-04-16T12:04:29.312Z,101559.50
2018-04-16T12:06:56.127Z,101557.97
2018-04-16T12:09:22.992Z,101559.32
2018-04-16T12:11:50.690Z,101562.70
2018-04-16T12:14:17.610Z,101570.02
2018-04-16T12:16:44.485Z,101570.81
2018-04-16T12:19:12.176Z,101573.58
2018-04-16T12:21:39.058Z,101580.50
2018-04-16T12:24:05.984Z,101581.27
2018-04-16T12:26:32.999Z,101589.37
2018-04-16T12:29:00.610Z,101591.31
2018-04-16T12:31:27.521Z,101595.91
2018-04-16T12:33:54.636Z,101598.46
2018-04-16T12:36:21.508Z,101600.75
2018-04-16T12:38:48.420Z,101607.83
2018-04-16T12:41:15.435Z,101608.73
2018-04-16T12:43:42.313Z,101615.38
2018-04-16T12:46:09.237Z,101620.47
2018-04-16T12:48:36.253Z,101622.86
2018-04-16T12:51:03.138Z,101621.24
2018-04-16T12:53:30.018Z,101632.48
2018-04-16T12:55:57.896Z,101628.08
2018-04-16T12:58:25.574Z,101631.13
2018-04-16T13:00:52.469Z,101634.77
2018-04-16T13:03:19.485Z,101636.06
2018-04-16T13:05:46.369Z,101633.31
2018-04-16T13:08:13.348Z,101632.58
2018-04-16T13:10:40.453Z,101632.98
2018-04-16T13:13:07.347Z,101633.98
2018-04-16T13:15:34.250Z,101630.95
2018-04-16T13:18:01.180Z,101628.56
2018-04-16T13:20:28.080Z,101627.48
2018-04-16T13:22:54.958Z,101630.34
2018-04-16T13:25:21.976Z,101631.90
2018-04-16T13:27:48.925Z,101628.47
2018-04-16T13:30:15.799Z,101632.58
2018-04-16T13:32:42.811Z,101641.35
2018-04-16T13:35:10.495Z,101636.14
2018-04-16T13:37:37.416Z,101629.45
2018-04-16T13:40:05.446Z,101638.57
2018-04-16T13:42:32.317Z,101639.06
2018-04-16T13:44:59.226Z,101632.96
2018-04-16T13:47:26.476Z,101637.98
2018-04-16T13:49:53.355Z,101639.95
2018-04-16T13:52:20.243Z,101638.13
2018-04-16T13:54:47.201Z,101654.58
2018-04-16T13:57:14.070Z,101656.92
2018-04-16T13:59:40.969Z,101650.80
2018-04-16T14:02:07.903Z,101654.28
2018-04-16T14:04:35.524Z,101659.18
2018-04-16T14:07:02.398Z,101658.81
2018-04-16T14:09:29.405Z,101666.80
2018-04-16T14:11:56.424Z,101669.72
2018-04-16T14:14:23.483Z,101667.30
2018-04-16T14:16:50.457Z,101677.83
2018-04-16T14:19:17.345Z,101666.39
2018-04-16T14:21:44.312Z,101669.75
2018-04-16T14:24:11.413Z,101675.81
2018-04-16T14:26:38.349Z,101671.83
2018-04-16T14:29:05.237Z,101677.23
2018-04-16T14:31:33.052Z,101678.06
2018-04-16T14:34:00.007Z,101690.73
2018-04-16T14:36:26.961Z,101677.90
2018-04-16T14:38:54.019Z,101686.38
2018-04-16T14:41:20.885Z,101687.19
2018-04-16T14:43:48.492Z,101687.76
2018-04-16T14:46:15.416Z,101693.61
2018-04-16T14:48:42.352Z,101697.77
2018-04-16T14:51:09.960Z,101695.20
2018-04-16T14:53:37.144Z,101689.31
2018-04-16T14:56:04.034Z,101695.05
2018-04-16T14:58:30.941Z,101701.99
2018-04-16T15:00:58.796Z,101701.35
2018-04-16T15:03:25.677Z,101708.37
2018-04-16T15:05:52.573Z,101714.12
2018-04-16T15:08:19.563Z,101711.34
2018-04-16T15:10:47.184Z,101716.33
2018-04-16T15:13:14.055Z,101716.19
2018-04-16T15:15:42.183Z,101715.90
2018-04-16T15:18:09.950Z,101722.08
2018-04-16T15:20:36.863Z,101735.80
2018-04-16T15:23:03.935Z,101732.13
2018-04-16T15:25:30.802Z,101733.98
2018-04-16T15:27:57.675Z,101731.45
2018-04-16T15:30:24.597Z,101733.72
2018-04-16T15:32:51.525Z,101741.20
2018-04-16T15:35:18.411Z,101737.67
2018-04-16T15:37:45.626Z,101741.10
2018-04-16T15:40:12.509Z,101731.80
2018-04-16T15:42:39.379Z,101735.24
2018-04-16T15:45:07.040Z,101738.64
2018-04-16T15:47:33.992Z,101740.56
2018-04-16T15:50:00.926Z,101749.02
2018-04-16T15:52:28.677Z,101753.88
2018-04-16T15:54:56.328Z,101755.65
2018-04-16T15:57:23.200Z,101757.13
2018-04-16T15:59:51.048Z,101758.22
2018-04-16T16:02:17.947Z,101762.89
2018-04-16T16:04:44.868Z,101764.16
2018-04-16T16:07:11.785Z,101766.48
2018-04-16T16:09:39.465Z,101762.91
2018-04-16T16:12:07.087Z,101767.62
2018-04-16T16:14:34.152Z,101775.23
2018-04-16T16:17:01.018Z,101775.44
2018-04-16T16:19:28.625Z,101783.87
2018-04-16T16:21:55.539Z,101780.30
2018-04-16T16:24:22.411Z,101794.44
2018-04-16T16:26:49.279Z,101800.68
2018-04-16T16:29:16.204Z,101807.12
2018-04-16T16:31:43.961Z,101809.16
2018-04-16T16:34:10.828Z,101819.36
2018-04-16T16:36:38.482Z,101824.16
2018-04-16T16:39:05.493Z,101822.61
2018-04-16T16:41:33.147Z,101825.67
2018-04-16T16:44:00.957Z,101832.82
2018-04-16T16:46:27.888Z,101840.36
2018-04-16T16:48:54.764Z,101838.86
2018-04-16T16:51:21.850Z,101840.08
2018-04-16T16:53:48.717Z,101841.93
2018-04-16T16:56:15.610Z,101843.87
2018-04-16T16:58:42.676Z,101847.63
2018-04-16T17:01:10.316Z,101850.49
2018-04-16T17:03:37.260Z,101857.44
2018-04-16T17:06:04.404Z,101860.44
2018-04-16T17:08:31.281Z,101863.95
2018-04-16T17:10:58.160Z,101880.11
2018-04-16T17:13:25.105Z,101877.84
2018-04-16T17:15:52.005Z,101887.37
2018-04-16T17:18:18.995Z,101884.95
2018-04-16T17:20:45.977Z,101890.52
2018-04-16T17:23:12.843Z,101892.61
2018-04-16T17:25:40.529Z,101891.49
2018-04-16T17:28:07.686Z,101895.61
2018-04-16T17:30:35.303Z,101889.34
2018-04-16T17:33:02.260Z,101895.63
2018-04-16T17:35:29.223Z,101898.06
2018-04-16T17:37:56.141Z,101906.57
2018-04-16T17:40:23.080Z,101917.95
2018-04-16T17:42:50.303Z,101914.26
2018-04-16T17:45:17.219Z,101922.12
2018-04-16T17:47:44.153Z,101931.33
2018-04-16T17:50:11.226Z,101928.48
2018-04-16T17:52:38.853Z,101943.59
2018-04-16T17:55:05.742Z,101947.48
2018-04-16T17:57:33.417Z,101956.22
2018-04-16T18:00:00.302Z,101964.57
2018-04-16T18:02:27.182Z,101966.41
2018-04-16T18:04:54.335Z,101973.56
2018-04-16T18:07:21.201Z,101980.67
2018-04-16T18:09:48.990Z,101983.55
2018-04-16T18:12:16.112Z,101987.21
2018-04-16T18:14:43.846Z,101991.27
2018-04-16T18:17:10.696Z,101998.98
2018-04-16T18:19:37.861Z,102004.31
2018-04-16T18:22:04.734Z,102009.89
2018-04-16T18:24:31.601Z,102024.19
2018-04-16T18:26:58.703Z,102020.94
2018-04-16T18:29:26.376Z,102030.95
2018-04-16T18:31:53.980Z,102029.45
2018-04-16T18:34:21.076Z,102037.84
2018-04-16T18:36:47.992Z,102038.19
2018-04-16T18:39:14.927Z,102040.24
2018-04-16T18:41:41.864Z,102044.34
2018-04-16T18:44:08.839Z,102053.19
2018-04-16T18:46:35.798Z,102058.66
2018-04-16T18:49:02.921Z,102071.55
2018-04-16T18:51:29.830Z,102071.16
2018-04-16T18:53:56.757Z,102075.77
2018-04-16T18:56:23.902Z,102080.02
2018-04-16T18:58:50.822Z,102082.02
2018-04-16T19:01:17.726Z,102085.75
2018-04-16T19:03:44.779Z,102082.34
2018-04-16T19:06:11.655Z,102087.53
2018-04-16T19:08:38.533Z,102098.20
2018-04-16T19:11:05.749Z,102099.84
2018-04-16T19:13:32.658Z,102106.07
2018-04-16T19:15:59.646Z,102108.75
2018-04-16T19:18:26.682Z,102106.88
2018-04-16T19:20:59.585Z,102108.25
2018-04-16T19:23:27.235Z,102103.24
2018-04-16T19:25:54.133Z,102109.87
2018-04-16T19:28:21.770Z,102106.38
2018-04-16T19:30:48.834Z,102112.70
2018-04-16T19:33:21.850Z,102119.66
2018-04-16T19:35:48.909Z,102129.58
2018-04-16T19:38:16.085Z,102127.09
2018-04-16T19:40:42.982Z,102128.18
2018-04-16T19:43:10.594Z,102118.94
2018-04-16T19:45:37.633Z,102120.95
2018-04-16T19:48:04.553Z,102124.67
2018-04-16T19:50:31.424Z,102122.95
2018-04-16T19:52:58.472Z,102120.11
2018-04-16T19:55:25.436Z,102120.47
2018-04-16T19:57:58.401Z,102120.54
2018-04-16T20:00:25.515Z,102124.16
2018-04-16T20:02:59.296Z,102132.05
2018-04-16T20:05:26.347Z,102132.80
2018-04-16T20:07:53.230Z,102136.89
2018-04-16T20:10:20.108Z,102153.31
2018-04-16T20:12:47.210Z,102147.52
2018-04-16T20:15:14.826Z,102157.69
2018-04-16T20:17:41.707Z,102164.28
2018-04-16T20:20:09.524Z,102161.67
2018-04-16T20:22:36.405Z,102169.48
2018-04-16T20:25:03.317Z,102170.38
2018-04-16T20:27:30.335Z,102173.64
2018-04-16T20:29:57.977Z,102172.14
2018-04-16T20:32:24.852Z,102179.56
2018-04-16T20:34:51.985Z,102176.03
2018-04-16T20:37:19.639Z,102184.94
2018-04-16T20:39:47.259Z,102187.19
2018-04-16T20:42:14.594Z,102196.20
2018-04-16T20:44:47.430Z,102194.69
2018-04-16T20:47:14.408Z,102199.05
2018-04-16T20:49:41.536Z,102207.49
2018-04-16T20:52:08.409Z,102207.64
2018-04-16T20:54:35.302Z,102199.55
2018-04-16T20:57:02.353Z,102205.67
2018-04-16T20:59:29.263Z,102217.23
2018-04-16T21:01:56.130Z,102217.41
2018-04-16T21:04:23.145Z,102215.08
2018-04-16T21:06:50.072Z,102228.02
2018-04-16T21:09:17.006Z,102224.41
2018-04-16T21:11:44.117Z,102226.97
2018-04-16T21:14:10.983Z,102229.29
2018-04-16T21:16:37.908Z,102226.19
2018-04-16T21:19:05.057Z,102226.91
2018-04-16T21:21:32.028Z,102225.05
2018-04-16T21:23:59.169Z,102223.59
2018-04-16T21:26:27.013Z,102227.06
2018-04-16T21:28:53.905Z,102230.02
2018-04-16T21:31:20.833Z,102236.44
2018-04-16T21:33:47.908Z,102235.40
2018-04-16T21:36:15.585Z,102237.58
2018-04-16T21:38:42.575Z,102237.73
2018-04-16T21:41:10.430Z,102239.01
2018-04-16T21:43:37.311Z,102242.52
2018-04-16T21:46:04.292Z,102236.52
2018-04-16T21:48:32.078Z,102241.98
2018-04-16T21:50:59.055Z,102243.61
2018-04-16T21:53:26.008Z,102243.68
2018-04-16T21:55:53.072Z,102248.17
2018-04-16T21:58:19.948Z,102246.30
2018-04-16T22:00:47.621Z,102246.97
2018-04-16T22:03:14.748Z,102253.53
2018-04-16T22:05:41.678Z,102250.32
2018-04-16T22:08:08.552Z,102253.45
2018-04-16T22:10:36.342Z,102256.79
2018-04-16T22:13:03.286Z,102264.31
2018-04-16T22:15:30.161Z,102264.78
2018-04-16T22:17:57.248Z,102268.88
2018-04-16T22:20:24.860Z,102277.11
2018-04-16T22:22:51.745Z,102270.77
2018-04-16T22:25:18.763Z,102267.72
2018-04-16T22:27:45.635Z,102276.45
2018-04-16T22:30:12.556Z,102268.24
2018-04-16T22:32:39.465Z,102276.39
2018-04-16T22:35:06.343Z,102282.92
2018-04-16T22:37:33.276Z,102288.59
2018-04-16T22:40:00.372Z,102287.47
2018-04-16T22:42:27.263Z,102283.81
2018-04-16T22:44:54.157Z,102289.49
2018-04-16T22:47:21.185Z,102293.75
2018-04-16T22:49:48.061Z,102294.16
2018-04-16T22:52:15.796Z,102301.44
2018-04-16T22:54:42.708Z,102305.86
2018-04-16T22:57:09.588Z,102311.94
2018-04-16T22:59:36.452Z,102308.63
2018-04-16T23:02:03.677Z,102310.67
2018-04-16T23:04:30.904Z,102309.48
2018-04-16T23:06:57.849Z,102316.57
2018-04-16T23:09:24.865Z,102319.89
2018-04-16T23:11:51.787Z,102317.97
2018-04-16T23:14:18.668Z,102320.38
2018-04-16T23:16:46.400Z,102329.65
2018-04-16T23:19:13.332Z,102325.56
2018-04-16T23:21:40.207Z,102327.20
2018-04-16T23:24:08.086Z,102329.05
2018-04-16T23:26:35.680Z,102332.95
2018-04-16T23:29:02.563Z,102334.32
2018-04-16T23:31:29.628Z,102336.45
2018-04-16T23:33:56.511Z,102334.84
2018-04-16T23:36:23.434Z,102333.62
2018-04-16T23:38:50.736Z,102334.66
2018-04-16T23:41:17.614Z,102335.28
2018-04-16T23:43:44.493Z,102340.42
2018-04-16T23:46:11.544Z,102342.63
2018-04-16T23:48:38.504Z,102356.48
2018-04-16T23:51:05.390Z,102356.48
2018-04-16T23:53:32.357Z,102359.99
2018-04-16T23:55:59.228Z,102358.80
2018-04-16T23:58:26.164Z,102362.97
